Ana Sayfa
METAR-TAF:

METAR-TAF

Havaalanları :

Golden, İngiliz Kolombiyası, Kanada

Enlem: 51-18N, Boylam: 116-59W, yükseklik: 785 m

Güncel hava durumu gözlemi

Rapor saat 19:00 UTC de 28 dakika önce yapıldı.
Rüzgar kuzeybatıdan 6 kt, batı ve kuzey/kuzeybatı arasında değişken
Sıcaklık -4°C
Nem 100%
Basınç 1024 hPa
Görüş mesafesi: 32.2 km
1800 ft yükseklikte az bulutlu
6000 ft yükseklikte az bulutlu
10000 ft yükseklikte parçalı bulutlu
13000 ft yükseklikte parçalı bulutlu

METAR: CYGE 241900Z 31006KT 260V340 20SM FEW018 FEW060 SCT100 SCT130 M04/M04 A3024 RMK SC1CU2AC1AC1 SC TR AC TR SLP290

Saat: 12:28 (19:28 UTC)


TAF: eksik

4.000'den fazla havaalanı için hava durumu gözlemleri ve tahminleri (METAR ve TAF raporları).

Kullanılabilir istasyonlar harita üzerinde sarı ve kırmızı noktalarla gösterilir.

İstasyonun adını görmek için fareyi noktanın üzerinde gezdirin.

Sonrasında hava gözlem ve tahminlerini görmek için tıklayın.

Haritayı değiştirmek için: yaklaştırmak için siyah artı işaretli yeşil düğmeye ve uzaklaştırmak için de eksi işaretli düğmeye hızla tıklayın; bitişik haritalar için yeşil okları kullanın.


METAR-TAF: